メインページ
METAR-TAF:

METAR-TAF

空港 :

関西国際空港, 日本

緯度: 34-25N, 経度: 135-15E, 海抜: 5m

現時点の気象観測

当レポートは33分前の08:00(UTC)に作成
南西の風 6kt、から西/南西の間で変化する
気温 10°C
湿度 66%
気圧 1022 hPa
視程10km以上
高度2500ftの雲はほとんどない
高度4000ftの千切れ雲あり

METAR: RJBB 130800Z 22006KT 180V250 9999 FEW025 BKN040 10/04 Q1022 BECMG 29020KT

時間: 17:33 (08:33 UTC)

予報

当レポートは58分前の07:35(UTC)に作成
予報は13日の 07時(UTC)から 14日の 12時(UTC)まで有効
南西の風 6kt
視程10km以上
高度2000ftの雲はほとんどない
高度4000ftの千切れ雲あり
13日の 07時(UTC)から 13日の 09時(UTC)まで徐々に
西/北西の風 20kt
13日の 09時(UTC)から 13日の 12時(UTC)まで一時的に
西/北西の風 22kt、最大34ktの突風を伴う
13日の 16時(UTC)から 13日の 18時(UTC)まで徐々に
北/北西の風 20kt
13日の 18時(UTC)から 14日の 00時(UTC)まで一時的に
北/北西の風 20kt、最大30ktの突風を伴う

TAF: RJBB 130735Z 1307/1412 22006KT 9999 FEW020 BKN040 BECMG 1307/1309 29020KT TEMPO 1309/1312 29022G34KT BECMG 1316/1318 33020KT TEMPO 1318/1400 33020G30KT

4,000以上の空港の気象観測と天気予報(METAR報とTAF報)

利用可能な観測所は地図上に黄色い丸と赤い丸で示す。

丸の上にカーソルを重ねると観測所名を参照できる。

次にクリックすると気象観測と天気予報を参照できる。

マップの切り替え:黒色「×」印の緑ボタンをクリックして拡大、「-」印の緑ボタンをクリックして縮小、緑色の三角印をクリックして隣りの地図に切り替え


METAR-TAF: